createdAt,value
2022-10-11T00:00:06.078Z,100013.69
2022-10-11T00:00:18.190Z,100013.63
2022-10-11T00:00:32.484Z,100012.53
2022-10-11T00:00:44.391Z,100014.06
2022-10-11T00:00:56.443Z,100013.22
2022-10-11T00:01:08.462Z,100010.50
2022-10-11T00:01:20.660Z,100016.50
2022-10-11T00:01:32.823Z,100013.88
2022-10-11T00:01:44.803Z,100019.00
2022-10-11T00:01:56.772Z,100016.19
2022-10-11T00:02:08.680Z,100018.66
2022-10-11T00:02:20.671Z,100020.34
2022-10-11T00:02:32.616Z,100015.97
2022-10-11T00:02:44.605Z,100013.41
2022-10-11T00:02:57.414Z,100025.59
2022-10-11T00:03:09.638Z,100017.81
2022-10-11T00:03:21.924Z,100020.34
2022-10-11T00:03:33.876Z,100018.59
2022-10-11T00:03:45.753Z,100022.81
2022-10-11T00:03:57.636Z,100025.44
2022-10-11T00:04:09.579Z,100017.63
2022-10-11T00:04:21.489Z,100020.34
2022-10-11T00:04:33.461Z,100025.78
2022-10-11T00:04:45.591Z,100021.38
2022-10-11T00:04:57.460Z,100019.84
2022-10-11T00:05:09.665Z,100024.25
2022-10-11T00:05:21.547Z,100020.84
2022-10-11T00:05:33.660Z,100021.63
2022-10-11T00:05:45.996Z,100024.25
2022-10-11T00:05:57.997Z,100020.91
2022-10-11T00:06:10.022Z,100026.94
2022-10-11T00:06:21.916Z,100026.81
2022-10-11T00:06:33.887Z,100024.25
2022-10-11T00:06:47.171Z,100023.47
2022-10-11T00:06:59.140Z,100031.28
2022-10-11T00:07:11.032Z,100023.41
2022-10-11T00:07:22.914Z,100028.56
2022-10-11T00:07:37.241Z,100024.91
2022-10-11T00:07:49.277Z,100023.47
2022-10-11T00:08:01.521Z,100028.91
2022-10-11T00:08:14.249Z,100028.34
2022-10-11T00:08:27.247Z,100027.44
2022-10-11T00:08:39.164Z,100027.38
2022-10-11T00:08:51.061Z,100036.59
2022-10-11T00:09:03.828Z,100031.06
2022-10-11T00:09:16.156Z,100026.56
2022-10-11T00:09:28.126Z,100030.91
2022-10-11T00:09:40.315Z,100030.84
2022-10-11T00:09:52.232Z,100028.22
2022-10-11T00:10:06.312Z,100034.63
2022-10-11T00:10:19.221Z,100028.44
2022-10-11T00:10:32.469Z,100033.69
2022-10-11T00:10:44.748Z,100033.69
2022-10-11T00:10:59.366Z,100030.97
2022-10-11T00:11:11.287Z,100028.28
2022-10-11T00:11:23.211Z,100036.94
2022-10-11T00:11:35.110Z,100035.22
2022-10-11T00:11:47.006Z,100032.53
2022-10-11T00:11:59.316Z,100036.75
2022-10-11T00:12:11.603Z,100035.00
2022-10-11T00:12:23.481Z,100035.84
2022-10-11T00:12:36.234Z,100037.53
2022-10-11T00:12:48.707Z,100036.59
2022-10-11T00:13:00.880Z,100031.34
2022-10-11T00:13:12.774Z,100030.41
2022-10-11T00:13:25.010Z,100030.34
2022-10-11T00:13:36.941Z,100034.66
2022-10-11T00:13:48.862Z,100031.09
2022-10-11T00:14:00.794Z,100036.28
2022-10-11T00:14:12.768Z,100027.44
2022-10-11T00:14:25.524Z,100035.25
2022-10-11T00:14:38.598Z,100036.09
2022-10-11T00:14:50.511Z,100032.56
2022-10-11T00:15:03.916Z,100032.56
2022-10-11T00:15:18.240Z,100038.66
2022-10-11T00:15:30.377Z,100030.84
2022-10-11T00:15:42.243Z,100041.34
2022-10-11T00:15:54.435Z,100035.25
2022-10-11T00:16:10.846Z,100035.19
2022-10-11T00:16:23.039Z,100034.41
2022-10-11T00:16:34.993Z,100037.81
2022-10-11T00:16:46.912Z,100030.84
2022-10-11T00:16:58.794Z,100034.25
2022-10-11T00:17:10.705Z,100031.59
2022-10-11T00:17:22.613Z,100030.69
2022-10-11T00:17:35.179Z,100033.25
2022-10-11T00:17:47.886Z,100035.81
2022-10-11T00:18:04.507Z,100035.81
2022-10-11T00:18:17.193Z,100032.41
2022-10-11T00:18:29.122Z,100036.72
2022-10-11T00:18:41.295Z,100035.81
2022-10-11T00:18:53.490Z,100037.47
2022-10-11T00:19:05.443Z,100041.06
2022-10-11T00:19:17.452Z,100038.09
2022-10-11T00:19:29.403Z,100038.25
2022-10-11T00:19:41.302Z,100040.88
2022-10-11T00:19:53.245Z,100037.34
2022-10-11T00:20:05.980Z,100039.00
2022-10-11T00:20:18.339Z,100037.34
2022-10-11T00:20:30.324Z,100030.09
2022-10-11T00:20:42.199Z,100040.53
2022-10-11T00:21:02.002Z,100030.03
2022-10-11T00:21:15.884Z,100026.50
2022-10-11T00:21:27.782Z,100037.00
2022-10-11T00:21:39.709Z,100038.69
2022-10-11T00:21:51.591Z,100034.97
2022-10-11T00:22:03.533Z,100032.50
2022-10-11T00:22:15.786Z,100034.19
2022-10-11T00:22:27.721Z,100033.34
2022-10-11T00:22:40.827Z,100034.81
2022-10-11T00:22:53.118Z,100038.44
2022-10-11T00:23:05.003Z,100030.53
2022-10-11T00:23:17.024Z,100037.50
2022-10-11T00:23:29.008Z,100033.94
2022-10-11T00:23:41.515Z,100040.06
2022-10-11T00:23:53.595Z,100032.94
2022-10-11T00:24:06.151Z,100038.19
2022-10-11T00:24:18.085Z,100032.94
2022-10-11T00:24:29.961Z,100033.78
2022-10-11T00:24:41.844Z,100041.59
2022-10-11T00:24:53.822Z,100038.09
2022-10-11T00:25:08.395Z,100033.69
2022-10-11T00:25:20.335Z,100035.38
2022-10-11T00:25:32.331Z,100040.63
2022-10-11T00:25:44.210Z,100038.09
2022-10-11T00:26:01.172Z,100031.06
2022-10-11T00:26:13.364Z,100036.34
2022-10-11T00:26:25.260Z,100035.47
2022-10-11T00:26:37.220Z,100033.78
2022-10-11T00:26:49.095Z,100034.63
2022-10-11T00:27:00.998Z,100034.63
2022-10-11T00:27:12.883Z,100038.19
2022-10-11T00:27:24.976Z,100032.06
2022-10-11T00:27:37.333Z,100037.25
2022-10-11T00:27:49.253Z,100038.34
2022-10-11T00:28:01.127Z,100037.59
2022-10-11T00:28:13.070Z,100040.38
2022-10-11T00:28:25.053Z,100040.38
2022-10-11T00:28:37.143Z,100037.75
2022-10-11T00:28:52.018Z,100039.44
2022-10-11T00:29:04.559Z,100035.91
2022-10-11T00:29:16.552Z,100037.75
2022-10-11T00:29:28.505Z,100043.78
2022-10-11T00:29:40.417Z,100038.59
2022-10-11T00:29:52.896Z,100041.81
2022-10-11T00:30:06.523Z,100036.75
2022-10-11T00:30:18.571Z,100034.19
2022-10-11T00:30:31.552Z,100043.78
2022-10-11T00:30:43.751Z,100037.16
2022-10-11T00:30:55.808Z,100036.47
2022-10-11T00:31:13.677Z,100036.47
2022-10-11T00:31:25.649Z,100041.06
2022-10-11T00:31:37.582Z,100035.94
2022-10-11T00:31:49.470Z,100042.91
2022-10-11T00:32:01.431Z,100034.09
2022-10-11T00:32:13.368Z,100040.19
2022-10-11T00:32:25.622Z,100042.81
2022-10-11T00:32:38.393Z,100036.63
2022-10-11T00:32:50.472Z,100038.31
2022-10-11T00:33:02.733Z,100035.63
2022-10-11T00:33:14.628Z,100039.19
2022-10-11T00:33:26.521Z,100038.19
2022-10-11T00:33:38.442Z,100040.72
2022-10-11T00:33:50.349Z,100039.78
2022-10-11T00:34:02.231Z,100044.97
2022-10-11T00:34:15.563Z,100039.69
2022-10-11T00:34:27.803Z,100036.22
2022-10-11T00:34:39.706Z,100041.38
2022-10-11T00:34:51.859Z,100034.44
2022-10-11T00:35:06.351Z,100035.97
2022-10-11T00:35:18.449Z,100035.91
2022-10-11T00:35:30.359Z,100034.97
2022-10-11T00:35:42.544Z,100036.66
2022-10-11T00:35:54.457Z,100035.28
2022-10-11T00:36:08.091Z,100040.72
2022-10-11T00:36:21.344Z,100035.63
2022-10-11T00:36:33.291Z,100039.19
2022-10-11T00:36:45.748Z,100033.19
2022-10-11T00:36:57.823Z,100031.47
2022-10-11T00:37:09.720Z,100038.44
2022-10-11T00:37:21.868Z,100037.47
2022-10-11T00:37:35.863Z,100034.84
2022-10-11T00:37:47.743Z,100039.19
2022-10-11T00:37:59.629Z,100037.41
2022-10-11T00:38:11.563Z,100038.31
2022-10-11T00:38:23.449Z,100038.31
2022-10-11T00:38:35.344Z,100031.38
2022-10-11T00:38:47.285Z,100044.44
2022-10-11T00:38:59.325Z,100033.06
2022-10-11T00:39:13.766Z,100033.06
2022-10-11T00:39:26.447Z,100032.22
2022-10-11T00:39:38.359Z,100032.22
2022-10-11T00:39:50.315Z,100031.38
2022-10-11T00:40:03.800Z,100036.56
2022-10-11T00:40:18.517Z,100043.75
2022-10-11T00:40:30.423Z,100035.03
2022-10-11T00:40:42.433Z,100038.13
2022-10-11T00:40:54.431Z,100042.56
2022-10-11T00:41:06.392Z,100038.13
2022-10-11T00:41:18.665Z,100036.09
2022-10-11T00:41:30.606Z,100041.19
2022-10-11T00:41:42.860Z,100042.13
2022-10-11T00:41:55.178Z,100033.31
2022-10-11T00:42:13.109Z,100033.94
2022-10-11T00:42:25.027Z,100038.50
2022-10-11T00:42:36.921Z,100034.84
2022-10-11T00:42:48.808Z,100040.19
2022-10-11T00:43:01.401Z,100037.66
2022-10-11T00:43:22.480Z,100038.44
2022-10-11T00:43:34.911Z,100041.81
2022-10-11T00:43:46.825Z,100034.78
2022-10-11T00:44:20.069Z,100039.97
2022-10-11T00:44:33.115Z,100036.38
2022-10-11T00:44:49.288Z,100045.03
2022-10-11T00:45:31.846Z,100042.59
2022-10-11T00:46:02.906Z,100040.72
2022-10-11T00:46:17.917Z,100039.78
2022-10-11T00:46:32.029Z,100034.72
2022-10-11T00:46:53.632Z,100042.66
2022-10-11T00:47:12.402Z,100044.44
2022-10-11T00:47:24.892Z,100039.97
2022-10-11T00:47:36.793Z,100045.97
2022-10-11T00:47:48.699Z,100044.13
2022-10-11T00:48:04.060Z,100048.59
2022-10-11T00:48:23.306Z,100046.13
2022-10-11T00:48:48.808Z,100042.59
2022-10-11T00:49:05.537Z,100043.44
2022-10-11T00:49:42.026Z,100041.63
2022-10-11T00:49:56.308Z,100043.34
2022-10-11T00:50:11.313Z,100034.53
2022-10-11T00:50:24.697Z,100044.13
2022-10-11T00:50:37.311Z,100045.97
2022-10-11T00:50:49.735Z,100041.56
2022-10-11T00:51:04.791Z,100045.78
2022-10-11T00:51:23.347Z,100049.94
2022-10-11T00:51:57.851Z,100042.75
2022-10-11T00:52:31.214Z,100046.22
2022-10-11T00:52:47.096Z,100050.56
2022-10-11T00:53:03.063Z,100047.19
2022-10-11T00:53:15.411Z,100047.06
2022-10-11T00:53:29.401Z,100044.44
2022-10-11T00:53:42.089Z,100052.25
2022-10-11T00:53:54.048Z,100049.69
2022-10-11T00:54:07.575Z,100048.84
2022-10-11T00:54:23.964Z,100047.19
2022-10-11T00:54:41.721Z,100049.03
2022-10-11T00:54:53.873Z,100048.28
2022-10-11T00:55:14.200Z,100054.63
2022-10-11T00:55:31.252Z,100052.00
2022-10-11T00:55:58.808Z,100056.81
2022-10-11T00:56:17.289Z,100051.56
2022-10-11T00:56:38.944Z,100049.84
2022-10-11T00:56:56.914Z,100050.78
2022-10-11T00:57:13.956Z,100055.25
2022-10-11T00:57:30.136Z,100056.13
2022-10-11T00:57:45.967Z,100057.09
2022-10-11T00:57:58.854Z,100049.34
2022-10-11T00:58:12.536Z,100051.09
2022-10-11T00:58:24.761Z,100047.56
2022-10-11T00:58:38.125Z,100052.19
2022-10-11T00:58:50.606Z,100053.91
2022-10-11T00:59:06.375Z,100054.66
2022-10-11T00:59:23.932Z,100059.84
2022-10-11T00:59:40.295Z,100050.19
2022-10-11T00:59:54.831Z,100049.34
2022-10-11T01:00:10.576Z,100053.56
2022-10-11T01:00:22.539Z,100051.72
2022-10-11T01:00:34.571Z,100054.34
2022-10-11T01:00:46.714Z,100053.41
2022-10-11T01:00:58.673Z,100053.41
2022-10-11T01:01:10.912Z,100051.72
2022-10-11T01:01:22.874Z,100055.19
2022-10-11T01:01:34.898Z,100050.78
2022-10-11T01:01:46.982Z,100049.84
2022-10-11T01:01:58.971Z,100050.78
2022-10-11T01:02:12.673Z,100054.25
2022-10-11T01:02:24.879Z,100048.31
2022-10-11T01:02:37.114Z,100051.03
2022-10-11T01:02:49.303Z,100051.84
2022-10-11T01:03:02.967Z,100057.22
2022-10-11T01:03:17.374Z,100055.44
2022-10-11T01:03:31.403Z,100053.56
2022-10-11T01:03:44.730Z,100057.09
2022-10-11T01:03:57.364Z,100046.59
2022-10-11T01:04:09.299Z,100047.56
2022-10-11T01:04:21.627Z,100051.28
2022-10-11T01:04:34.359Z,100054.81
2022-10-11T01:04:46.547Z,100046.94
2022-10-11T01:05:25.212Z,100046.94
2022-10-11T01:05:31.397Z,100057.44
2022-10-11T01:05:44.275Z,100053.91
2022-10-11T01:05:56.328Z,100049.41
2022-10-11T01:06:09.117Z,100052.03
2022-10-11T01:06:21.147Z,100051.09
2022-10-11T01:06:34.847Z,100053.56
2022-10-11T01:06:47.397Z,100053.56
2022-10-11T01:06:59.992Z,100051.78
2022-10-11T01:07:12.407Z,100054.41
2022-10-11T01:07:27.935Z,100048.31
2022-10-11T01:07:41.470Z,100055.25
2022-10-11T01:07:53.819Z,100050.09
2022-10-11T01:08:07.118Z,100049.16
2022-10-11T01:08:19.176Z,100053.41
2022-10-11T01:08:31.728Z,100051.56
2022-10-11T01:08:44.317Z,100053.25
2022-10-11T01:08:56.465Z,100051.38
2022-10-11T01:09:08.449Z,100049.69
2022-10-11T01:09:21.245Z,100056.63
2022-10-11T01:09:33.669Z,100055.88
2022-10-11T01:09:45.749Z,100056.63
2022-10-11T01:09:58.302Z,100052.31
2022-10-11T01:10:10.459Z,100054.84
2022-10-11T01:10:22.519Z,100052.22
2022-10-11T01:10:34.936Z,100061.75
2022-10-11T01:10:47.116Z,100060.78
2022-10-11T01:10:59.630Z,100057.25
2022-10-11T01:11:16.579Z,100051.31
2022-10-11T01:11:30.797Z,100060.03
2022-10-11T01:11:43.910Z,100054.94
2022-10-11T01:12:01.030Z,100057.09
2022-10-11T01:12:21.635Z,100062.13
2022-10-11T01:12:34.015Z,100054.19
2022-10-11T01:13:04.429Z,100054.09
2022-10-11T01:13:25.172Z,100061.88
2022-10-11T01:14:10.227Z,100053.94
2022-10-11T01:14:30.973Z,100058.16
2022-10-11T01:15:09.933Z,100052.16
2022-10-11T01:15:44.867Z,100058.31
2022-10-11T01:16:28.709Z,100061.66
2022-10-11T01:17:08.194Z,100058.00
2022-10-11T01:17:27.059Z,100054.22
2022-10-11T01:18:09.085Z,100056.06
2022-10-11T01:18:34.553Z,100057.63
2022-10-11T01:19:14.937Z,100058.63
2022-10-11T01:19:51.338Z,100060.25
2022-10-11T01:20:21.833Z,100053.13
2022-10-11T01:20:45.838Z,100056.53
2022-10-11T01:21:36.714Z,100060.81
2022-10-11T01:21:52.740Z,100058.38
2022-10-11T01:22:26.216Z,100061.00
2022-10-11T01:23:05.696Z,100060.06
2022-10-11T01:23:32.368Z,100065.75
2022-10-11T01:24:14.996Z,100061.00
2022-10-11T01:24:29.566Z,100066.66
2022-10-11T01:25:12.164Z,100071.13
2022-10-11T01:25:42.462Z,100062.25
2022-10-11T01:26:27.028Z,100063.19
2022-10-11T01:27:11.303Z,100064.72
2022-10-11T01:27:32.371Z,100058.25
2022-10-11T01:27:46.990Z,100067.91
2022-10-11T01:28:25.142Z,100068.59
2022-10-11T01:28:39.725Z,100065.19
2022-10-11T01:29:12.488Z,100071.38
2022-10-11T01:29:42.330Z,100063.63
2022-10-11T01:30:23.234Z,100063.78
2022-10-11T01:30:37.032Z,100068.03
2022-10-11T01:30:50.987Z,100071.50
2022-10-11T01:31:19.851Z,100063.50
2022-10-11T01:31:39.359Z,100069.72
2022-10-11T01:31:58.542Z,100064.63
2022-10-11T01:32:27.733Z,100065.47
2022-10-11T01:32:39.578Z,100063.63
2022-10-11T01:33:16.173Z,100062.66
2022-10-11T01:33:41.317Z,100066.91
2022-10-11T01:33:59.941Z,100058.94
2022-10-11T01:34:18.900Z,100059.78
2022-10-11T01:34:40.709Z,100061.59
2022-10-11T01:34:52.571Z,100057.25
2022-10-11T01:35:12.809Z,100056.41
2022-10-11T01:36:09.127Z,100061.47
2022-10-11T01:36:32.771Z,100058.78
2022-10-11T01:36:55.071Z,100059.63
2022-10-11T01:37:25.187Z,100056.22
2022-10-11T01:37:42.642Z,100057.09
2022-10-11T01:38:04.158Z,100054.38
2022-10-11T01:38:32.891Z,100056.91
2022-10-11T01:38:53.196Z,100050.50
2022-10-11T01:39:09.741Z,100055.44
2022-10-11T01:39:31.554Z,100054.34
2022-10-11T01:39:51.704Z,100052.47
2022-10-11T01:40:27.326Z,100051.38
2022-10-11T01:40:49.262Z,100053.09
2022-10-11T01:41:12.180Z,100049.53
2022-10-11T01:41:28.039Z,100051.22
2022-10-11T01:41:51.287Z,100052.91
2022-10-11T01:42:06.277Z,100045.09
2022-10-11T01:42:19.763Z,100047.66
2022-10-11T01:42:31.828Z,100052.91
2022-10-11T01:42:44.235Z,100045.03
2022-10-11T01:42:57.613Z,100052.00
2022-10-11T01:43:10.245Z,100050.28
2022-10-11T01:43:24.319Z,100044.25
2022-10-11T01:43:38.741Z,100048.00
2022-10-11T01:43:56.166Z,100047.16
2022-10-11T01:44:09.172Z,100042.72
2022-10-11T01:44:23.978Z,100046.19
2022-10-11T01:44:38.231Z,100054.09
2022-10-11T01:44:51.255Z,100044.44
2022-10-11T01:45:04.972Z,100049.69
2022-10-11T01:45:18.772Z,100047.06
2022-10-11T01:45:32.730Z,100048.75
2022-10-11T01:45:47.784Z,100054.78
2022-10-11T01:46:00.409Z,100051.22
2022-10-11T01:46:13.485Z,100049.38
2022-10-11T01:46:28.112Z,100049.25
2022-10-11T01:46:40.838Z,100050.13
2022-10-11T01:46:53.770Z,100049.19
2022-10-11T01:47:05.800Z,100051.66
2022-10-11T01:47:22.917Z,100047.25
2022-10-11T01:47:35.188Z,100046.31
2022-10-11T01:47:47.546Z,100051.47
2022-10-11T01:48:05.246Z,100048.84
2022-10-11T01:48:17.553Z,100055.81
2022-10-11T01:48:29.456Z,100045.31
2022-10-11T01:48:52.590Z,100050.56
2022-10-11T01:49:05.092Z,100050.56
2022-10-11T01:49:17.044Z,100050.38
2022-10-11T01:49:28.925Z,100054.81
2022-10-11T01:49:41.870Z,100045.13
2022-10-11T01:49:58.818Z,100046.84
2022-10-11T01:50:35.200Z,100054.53
2022-10-11T01:50:50.955Z,100047.53
2022-10-11T01:51:04.026Z,100052.69
2022-10-11T01:51:16.303Z,100051.00
2022-10-11T01:51:48.190Z,100051.75
2022-10-11T01:52:06.258Z,100057.16
2022-10-11T01:52:18.136Z,100052.09
2022-10-11T01:52:33.858Z,100054.09
2022-10-11T01:52:46.632Z,100053.53
2022-10-11T01:53:21.196Z,100045.66
2022-10-11T01:53:35.847Z,100048.16
2022-10-11T01:54:10.990Z,100052.59
2022-10-11T01:55:15.607Z,100051.06
2022-10-11T01:55:41.120Z,100049.38
2022-10-11T01:56:21.398Z,100048.34
2022-10-11T01:57:11.795Z,100044.47
2022-10-11T01:57:44.790Z,100043.06
2022-10-11T01:58:29.108Z,100054.94
2022-10-11T01:59:13.459Z,100050.53
2022-10-11T01:59:46.969Z,100043.56
2022-10-11T02:00:15.270Z,100050.69
2022-10-11T02:00:33.977Z,100052.31
2022-10-11T02:00:58.012Z,100047.66
2022-10-11T02:01:19.011Z,100045.03
2022-10-11T02:01:39.762Z,100051.38
2022-10-11T02:02:18.250Z,100049.59
2022-10-11T02:02:45.036Z,100051.22
2022-10-11T02:03:22.940Z,100051.06
2022-10-11T02:04:02.817Z,100053.09
2022-10-11T02:04:25.917Z,100051.22
2022-10-11T02:04:48.637Z,100051.72
2022-10-11T02:05:16.511Z,100044.22
2022-10-11T02:05:53.154Z,100050.00
2022-10-11T02:06:26.541Z,100049.84
2022-10-11T02:06:50.709Z,100049.84
2022-10-11T02:07:17.226Z,100056.53
2022-10-11T02:08:17.131Z,100049.66
2022-10-11T02:08:50.885Z,100046.94
2022-10-11T02:09:20.904Z,100044.31
2022-10-11T02:09:38.241Z,100046.16
2022-10-11T02:10:03.327Z,100046.28
2022-10-11T02:10:30.539Z,100044.72
2022-10-11T02:10:55.897Z,100051.00
2022-10-11T02:11:21.109Z,100050.81
2022-10-11T02:11:34.657Z,100051.75
2022-10-11T02:11:46.790Z,100050.81
2022-10-11T02:12:05.152Z,100042.78
2022-10-11T02:12:25.308Z,100048.38
2022-10-11T02:12:42.913Z,100045.88
2022-10-11T02:13:17.709Z,100051.00
2022-10-11T02:13:35.566Z,100051.91
2022-10-11T02:14:08.802Z,100051.75
2022-10-11T02:14:24.767Z,100056.84
2022-10-11T02:14:41.773Z,100049.13
2022-10-11T02:14:56.610Z,100052.06
2022-10-11T02:15:12.505Z,100055.03
2022-10-11T02:15:28.068Z,100057.47
2022-10-11T02:15:41.891Z,100060.88
2022-10-11T02:15:57.249Z,100052.75
2022-10-11T02:16:16.364Z,100055.28
2022-10-11T02:17:07.722Z,100056.13
2022-10-11T02:17:25.235Z,100055.78
2022-10-11T02:17:43.286Z,100054.91
2022-10-11T02:17:58.940Z,100055.47
2022-10-11T02:18:16.404Z,100054.69
2022-10-11T02:18:36.064Z,100049.13
2022-10-11T02:18:52.203Z,100059.09
2022-10-11T02:19:07.048Z,100062.41
2022-10-11T02:19:23.041Z,100051.13
2022-10-11T02:19:40.801Z,100054.53
2022-10-11T02:19:56.617Z,100056.25
2022-10-11T02:20:14.353Z,100055.22
2022-10-11T02:20:28.534Z,100061.25
2022-10-11T02:20:42.872Z,100052.53
2022-10-11T02:20:57.234Z,100056.94
2022-10-11T02:21:13.224Z,100055.09
2022-10-11T02:21:27.500Z,100060.03
2022-10-11T02:21:43.801Z,100057.31
2022-10-11T02:22:01.392Z,100054.78
2022-10-11T02:22:40.031Z,100056.56
2022-10-11T02:23:00.399Z,100052.06
2022-10-11T02:23:17.456Z,100056.09
2022-10-11T02:23:36.885Z,100055.16
2022-10-11T02:24:00.037Z,100055.31
2022-10-11T02:24:21.555Z,100058.66
2022-10-11T02:24:36.092Z,100054.84
2022-10-11T02:24:52.663Z,100054.53
2022-10-11T02:25:10.482Z,100052.06
2022-10-11T02:25:27.238Z,100056.56
2022-10-11T02:25:39.511Z,100053.84
2022-10-11T02:25:52.487Z,100056.56
2022-10-11T02:26:07.273Z,100056.38
2022-10-11T02:26:21.914Z,100057.41
2022-10-11T02:26:36.337Z,100057.88
2022-10-11T02:26:54.084Z,100057.25
2022-10-11T02:27:07.696Z,100064.28
2022-10-11T02:27:23.008Z,100064.09
2022-10-11T02:27:38.592Z,100062.25
2022-10-11T02:27:54.592Z,100056.88
2022-10-11T02:28:12.269Z,100061.94
2022-10-11T02:28:29.668Z,100060.25
2022-10-11T02:28:43.933Z,100058.41
2022-10-11T02:29:00.308Z,100064.44
2022-10-11T02:29:15.609Z,100051.31
2022-10-11T02:29:30.728Z,100060.66
2022-10-11T02:29:45.210Z,100055.53
2022-10-11T02:30:01.548Z,100061.56
2022-10-11T02:30:15.330Z,100059.00
2022-10-11T02:30:29.021Z,100059.94
2022-10-11T02:30:43.949Z,100060.09
2022-10-11T02:30:57.917Z,100060.84
2022-10-11T02:31:11.851Z,100060.25
2022-10-11T02:31:25.401Z,100057.56
2022-10-11T02:31:39.714Z,100060.56
2022-10-11T02:31:52.751Z,100061.34
2022-10-11T02:32:06.754Z,100062.81
2022-10-11T02:32:21.847Z,100066.41
2022-10-11T02:32:36.932Z,100065.81
2022-10-11T02:32:51.390Z,100058.53
2022-10-11T02:33:07.607Z,100063.66
2022-10-11T02:33:26.944Z,100060.84
2022-10-11T02:33:44.856Z,100060.72
2022-10-11T02:34:00.300Z,100063.47
2022-10-11T02:34:18.534Z,100061.56
2022-10-11T02:34:35.264Z,100059.00
2022-10-11T02:34:52.099Z,100060.66
2022-10-11T02:35:04.485Z,100063.97
2022-10-11T02:35:17.314Z,100066.44
2022-10-11T02:35:32.292Z,100063.88
2022-10-11T02:35:50.167Z,100058.72
2022-10-11T02:36:08.622Z,100061.34
2022-10-11T02:36:32.918Z,100060.66
2022-10-11T02:36:47.816Z,100061.63
2022-10-11T02:37:05.446Z,100066.88
2022-10-11T02:37:34.447Z,100056.78
2022-10-11T02:37:51.981Z,100065.44
2022-10-11T02:38:26.134Z,100058.41
2022-10-11T02:38:44.126Z,100067.19
2022-10-11T02:39:03.297Z,100056.56
2022-10-11T02:39:23.483Z,100058.94
2022-10-11T02:39:35.301Z,100065.25
2022-10-11T02:39:58.182Z,100063.47
2022-10-11T02:40:30.914Z,100059.94
2022-10-11T02:40:46.174Z,100056.47
2022-10-11T02:41:02.597Z,100061.56
2022-10-11T02:41:26.410Z,100067.06
2022-10-11T02:41:40.640Z,100065.34
2022-10-11T02:41:56.324Z,100057.41
2022-10-11T02:42:14.814Z,100060.66
2022-10-11T02:42:42.944Z,100068.28
2022-10-11T02:43:03.398Z,100066.59
2022-10-11T02:43:24.066Z,100067.44
2022-10-11T02:43:43.445Z,100062.50
2022-10-11T02:44:00.428Z,100062.41
2022-10-11T02:44:35.324Z,100061.34
2022-10-11T02:44:59.580Z,100068.28
2022-10-11T02:45:27.897Z,100068.97
2022-10-11T02:45:44.615Z,100060.88
2022-10-11T02:46:00.185Z,100063.03
2022-10-11T02:46:13.412Z,100062.00
2022-10-11T02:46:30.398Z,100066.28
2022-10-11T02:46:44.236Z,100068.81
2022-10-11T02:46:56.227Z,100060.88
2022-10-11T02:47:09.065Z,100067.06
2022-10-11T02:47:21.319Z,100060.16
2022-10-11T02:47:33.851Z,100070.00
2022-10-11T02:47:46.880Z,100067.97
2022-10-11T02:47:58.961Z,100062.41
2022-10-11T02:48:12.527Z,100064.13
2022-10-11T02:48:25.189Z,100066.56
2022-10-11T02:48:37.524Z,100066.50
2022-10-11T02:48:50.293Z,100060.22
2022-10-11T02:49:02.858Z,100063.63
2022-10-11T02:49:16.485Z,100053.91
2022-10-11T02:49:29.767Z,100059.94
2022-10-11T02:49:41.843Z,100066.06
2022-10-11T02:49:54.271Z,100054.69
2022-10-11T02:50:06.681Z,100059.78
2022-10-11T02:50:18.720Z,100065.03
2022-10-11T02:50:30.724Z,100060.72
2022-10-11T02:50:43.430Z,100057.09
2022-10-11T02:50:57.181Z,100057.00
2022-10-11T02:51:13.690Z,100056.06
2022-10-11T02:51:29.495Z,100056.91
2022-10-11T02:51:41.716Z,100060.38
2022-10-11T02:51:56.112Z,100057.75
2022-10-11T02:52:08.041Z,100056.84
2022-10-11T02:52:19.933Z,100062.03
2022-10-11T02:52:31.822Z,100052.34
2022-10-11T02:52:43.824Z,100058.53
2022-10-11T02:52:55.717Z,100062.88
2022-10-11T02:53:08.369Z,100057.63
2022-10-11T02:53:21.131Z,100057.63
2022-10-11T02:53:33.570Z,100054.03
2022-10-11T02:53:45.577Z,100050.50
2022-10-11T02:53:57.722Z,100059.28
2022-10-11T02:54:09.671Z,100060.38
2022-10-11T02:54:21.815Z,100058.53
2022-10-11T02:54:34.077Z,100056.06
2022-10-11T02:54:46.065Z,100056.00
2022-10-11T02:54:58.000Z,100059.47
2022-10-11T02:55:10.971Z,100052.34
2022-10-11T02:55:22.959Z,100057.47
2022-10-11T02:55:35.039Z,100050.91
2022-10-11T02:55:49.339Z,100062.06
2022-10-11T02:56:01.367Z,100064.63
2022-10-11T02:56:13.431Z,100055.81
2022-10-11T02:56:25.499Z,100057.34
2022-10-11T02:56:37.393Z,100064.22
2022-10-11T02:56:49.338Z,100060.66
2022-10-11T02:57:01.267Z,100062.28
2022-10-11T02:57:13.208Z,100059.72
2022-10-11T02:57:25.129Z,100063.59
2022-10-11T02:57:37.005Z,100057.69
2022-10-11T02:57:48.993Z,100060.38
2022-10-11T02:58:01.196Z,100064.69
2022-10-11T02:58:13.068Z,100062.19
2022-10-11T02:58:25.370Z,100062.25
2022-10-11T02:58:37.273Z,100064.94
2022-10-11T02:58:49.571Z,100066.66
2022-10-11T02:59:01.471Z,100060.47
2022-10-11T02:59:13.399Z,100064.81
2022-10-11T02:59:25.299Z,100067.44
2022-10-11T02:59:37.339Z,100068.34
2022-10-11T02:59:49.272Z,100063.28
2022-10-11T03:00:01.272Z,100058.84
2022-10-11T03:00:13.896Z,100060.53
2022-10-11T03:00:25.885Z,100061.31
2022-10-11T03:00:37.761Z,100072.69
2022-10-11T03:00:50.251Z,100062.19
2022-10-11T03:01:02.135Z,100062.94
2022-10-11T03:01:14.384Z,100065.56
2022-10-11T03:01:26.406Z,100063.78
2022-10-11T03:01:38.352Z,100065.63
2022-10-11T03:01:50.298Z,100065.03
2022-10-11T03:02:02.257Z,100063.34
2022-10-11T03:02:14.241Z,100065.97
2022-10-11T03:02:26.149Z,100067.00
2022-10-11T03:02:38.080Z,100071.38
2022-10-11T03:02:50.043Z,100064.38
2022-10-11T03:03:01.917Z,100066.03
2022-10-11T03:03:13.878Z,100062.50
2022-10-11T03:03:25.779Z,100064.94
2022-10-11T03:03:37.786Z,100065.97
2022-10-11T03:03:49.740Z,100064.13
2022-10-11T03:04:01.641Z,100071.03
2022-10-11T03:04:13.547Z,100061.41
2022-10-11T03:04:25.505Z,100061.41
2022-10-11T03:04:37.442Z,100067.44
2022-10-11T03:04:49.357Z,100063.09
2022-10-11T03:05:01.376Z,100061.47
2022-10-11T03:05:13.271Z,100072.91
2022-10-11T03:05:25.249Z,100064.38
2022-10-11T03:05:40.600Z,100063.59
2022-10-11T03:05:58.453Z,100064.59
2022-10-11T03:06:10.341Z,100060.22
2022-10-11T03:06:22.243Z,100067.13
2022-10-11T03:06:34.401Z,100065.28
2022-10-11T03:06:46.308Z,100059.25
2022-10-11T03:06:58.243Z,100066.38
2022-10-11T03:07:10.150Z,100067.47
2022-10-11T03:07:22.051Z,100063.22
2022-10-11T03:07:33.989Z,100066.09
2022-10-11T03:07:45.875Z,100063.47
2022-10-11T03:07:57.802Z,100058.97